createdAt,value
2018-09-02T00:00:08.301Z,6.73
2018-09-02T00:02:37.331Z,5.83
2018-09-02T00:05:06.201Z,6.03
2018-09-02T00:07:35.097Z,5.43
2018-09-02T00:10:04.213Z,5.50
2018-09-02T00:12:33.109Z,5.90
2018-09-02T00:15:02.142Z,5.93
2018-09-02T00:17:31.120Z,6.10
2018-09-02T00:19:59.989Z,5.83
2018-09-02T00:22:28.913Z,5.97
2018-09-02T00:24:57.675Z,5.90
2018-09-02T00:27:26.656Z,5.90
2018-09-02T00:29:55.553Z,5.30
2018-09-02T00:32:24.643Z,5.43
2018-09-02T00:34:53.944Z,5.50
2018-09-02T00:37:22.727Z,4.77
2018-09-02T00:39:51.509Z,5.60
2018-09-02T00:42:20.412Z,4.80
2018-09-02T00:44:49.305Z,4.93
2018-09-02T00:47:18.199Z,5.20
2018-09-02T00:49:47.496Z,4.90
2018-09-02T00:52:16.617Z,4.83
2018-09-02T00:54:45.637Z,5.17
2018-09-02T00:57:14.875Z,4.73
2018-09-02T00:59:43.964Z,4.87
2018-09-02T01:02:13.264Z,4.27
2018-09-02T01:04:42.127Z,4.60
2018-09-02T01:07:11.059Z,4.67
2018-09-02T01:09:40.343Z,4.60
2018-09-02T01:12:09.215Z,4.37
2018-09-02T01:14:38.128Z,4.37
2018-09-02T01:17:07.231Z,4.70
2018-09-02T01:19:36.126Z,4.70
2018-09-02T01:22:05.212Z,4.47
2018-09-02T01:24:33.908Z,4.17
2018-09-02T01:27:02.762Z,3.60
2018-09-02T01:29:31.780Z,3.80
2018-09-02T01:32:00.673Z,4.00
2018-09-02T01:34:29.381Z,3.60
2018-09-02T01:36:58.242Z,4.17
2018-09-02T01:39:27.155Z,4.57
2018-09-02T01:41:55.965Z,4.60
2018-09-02T01:44:24.839Z,3.80
2018-09-02T01:46:53.815Z,4.87
2018-09-02T01:49:22.810Z,4.97
2018-09-02T01:51:51.603Z,4.87
2018-09-02T01:54:20.356Z,4.80
2018-09-02T01:56:49.583Z,4.53
2018-09-02T01:59:18.486Z,4.60
2018-09-02T02:01:47.291Z,4.87
2018-09-02T02:04:16.248Z,5.03
2018-09-02T02:06:45.081Z,4.73
2018-09-02T02:09:13.917Z,4.50
2018-09-02T02:11:42.677Z,4.77
2018-09-02T02:14:11.412Z,4.10
2018-09-02T02:16:40.119Z,4.73
2018-09-02T02:19:09.368Z,4.67
2018-09-02T02:21:38.193Z,4.37
2018-09-02T02:24:06.869Z,5.00
2018-09-02T02:26:35.866Z,5.00
2018-09-02T02:29:05.245Z,3.73
2018-09-02T02:31:34.262Z,4.80
2018-09-02T02:34:03.214Z,4.80
2018-09-02T02:36:32.440Z,4.70
2018-09-02T02:39:01.775Z,4.63
2018-09-02T02:41:30.746Z,4.27
2018-09-02T02:43:59.673Z,4.60
2018-09-02T02:46:28.496Z,4.80
2018-09-02T02:48:57.307Z,5.30
2018-09-02T02:51:26.108Z,4.80
2018-09-02T02:53:54.992Z,5.30
2018-09-02T02:56:23.824Z,5.07
2018-09-02T02:58:52.764Z,4.90
2018-09-02T03:01:22.043Z,5.27
2018-09-02T03:03:50.959Z,4.90
2018-09-02T03:06:20.470Z,4.80
2018-09-02T03:08:49.404Z,4.80
2018-09-02T03:11:18.185Z,4.60
2018-09-02T03:13:47.398Z,4.37
2018-09-02T03:16:16.173Z,4.23
2018-09-02T03:18:45.036Z,4.60
2018-09-02T03:21:13.941Z,4.60
2018-09-02T03:23:42.807Z,5.13
2018-09-02T03:26:11.558Z,5.00
2018-09-02T03:28:41.102Z,5.27
2018-09-02T03:31:10.368Z,4.67
2018-09-02T03:33:39.073Z,4.50
2018-09-02T03:36:08.017Z,5.80
2018-09-02T03:38:36.971Z,5.10
2018-09-02T03:41:06.509Z,4.80
2018-09-02T03:43:35.564Z,5.47
2018-09-02T03:46:04.455Z,5.70
2018-09-02T03:48:33.346Z,5.90
2018-09-02T03:51:02.164Z,5.97
2018-09-02T03:53:31.129Z,5.07
2018-09-02T03:56:00.217Z,5.20
2018-09-02T03:58:29.021Z,5.20
2018-09-02T04:03:53.212Z,5.47
2018-09-02T04:06:22.393Z,5.70
2018-09-02T04:08:51.574Z,5.60
2018-09-02T04:11:20.613Z,5.50
2018-09-02T04:13:49.371Z,5.53
2018-09-02T04:16:18.120Z,6.20
2018-09-02T04:18:47.264Z,5.00
2018-09-02T04:21:16.331Z,5.57
2018-09-02T04:23:45.125Z,5.47
2018-09-02T04:26:13.912Z,5.30
2018-09-02T04:28:43.256Z,5.97
2018-09-02T04:31:11.910Z,5.70
2018-09-02T04:33:40.747Z,6.20
2018-09-02T04:36:09.914Z,5.30
2018-09-02T04:38:38.990Z,5.87
2018-09-02T04:41:07.909Z,6.67
2018-09-02T04:43:36.667Z,7.10
2018-09-02T04:46:05.483Z,8.27
2018-09-02T04:48:34.132Z,7.97
2018-09-02T04:51:03.053Z,7.70
2018-09-02T04:53:31.799Z,8.00
2018-09-02T04:56:00.637Z,7.53
2018-09-02T04:58:29.498Z,8.07
2018-09-02T05:00:58.336Z,8.60
2018-09-02T05:03:27.308Z,8.40
2018-09-02T05:05:56.241Z,7.73
2018-09-02T05:08:24.914Z,8.63
2018-09-02T05:10:53.825Z,9.83
2018-09-02T05:13:22.712Z,9.13
2018-09-02T05:15:51.786Z,9.47
2018-09-02T05:18:20.694Z,8.50
2018-09-02T05:20:49.479Z,9.40
2018-09-02T05:23:18.331Z,9.43
2018-09-02T05:25:47.187Z,8.67
2018-09-02T05:28:15.901Z,8.60
2018-09-02T05:30:45.024Z,8.60
2018-09-02T05:33:13.971Z,8.90
2018-09-02T05:35:42.827Z,11.50
2018-09-02T05:38:11.676Z,9.50
2018-09-02T05:40:40.432Z,9.00
2018-09-02T05:43:09.355Z,9.33
2018-09-02T05:45:38.228Z,9.70
2018-09-02T05:48:07.106Z,9.80
2018-09-02T05:50:36.017Z,9.30
2018-09-02T05:53:04.852Z,9.80
2018-09-02T05:55:34.012Z,9.53
2018-09-02T05:58:02.903Z,8.77
2018-09-02T06:00:31.710Z,8.87
2018-09-02T06:03:00.555Z,9.37
2018-09-02T06:05:29.746Z,9.70
2018-09-02T06:07:59.330Z,9.07
2018-09-02T06:10:28.003Z,9.30
2018-09-02T06:12:56.819Z,9.93
2018-09-02T06:16:28.707Z,10.17
2018-09-02T06:18:57.655Z,10.23
2018-09-02T06:21:27.076Z,11.00
2018-09-02T06:23:55.907Z,10.00
2018-09-02T06:26:25.232Z,9.43
2018-09-02T06:28:54.499Z,10.60
2018-09-02T06:31:23.451Z,12.20
2018-09-02T06:33:52.702Z,13.17
2018-09-02T06:36:24.458Z,11.97
2018-09-02T06:38:53.079Z,12.37
2018-09-02T06:41:22.119Z,12.90
2018-09-02T06:43:50.966Z,12.27
2018-09-02T06:46:20.079Z,11.67
2018-09-02T06:48:48.747Z,13.10
2018-09-02T06:51:17.620Z,12.10
2018-09-02T06:53:52.925Z,14.20
2018-09-02T06:56:21.935Z,12.97
2018-09-02T06:58:51.041Z,15.30
2018-09-02T07:01:20.116Z,14.60
2018-09-02T07:03:49.005Z,15.30
2018-09-02T07:06:18.303Z,16.03
2018-09-02T07:08:47.125Z,16.37
2018-09-02T07:11:16.716Z,15.40
2018-09-02T07:13:45.987Z,15.50
2018-09-02T07:16:14.891Z,18.00
2018-09-02T07:18:43.631Z,15.07
2018-09-02T07:21:12.384Z,13.40
2018-09-02T07:23:41.559Z,14.00
2018-09-02T07:26:11.040Z,15.43
2018-09-02T07:28:44.655Z,15.03
2018-09-02T07:31:13.898Z,16.77
2018-09-02T07:33:43.015Z,15.00
2018-09-02T07:36:12.166Z,14.60
2018-09-02T07:38:41.052Z,17.00
2018-09-02T07:41:10.050Z,15.23
2018-09-02T07:43:39.544Z,13.90
2018-09-02T07:46:08.620Z,14.67
2018-09-02T07:48:37.945Z,14.00
2018-09-02T07:51:07.100Z,14.60
2018-09-02T07:53:35.915Z,13.40
2018-09-02T07:56:04.627Z,13.13
2018-09-02T07:58:34.010Z,14.07
2018-09-02T08:01:03.540Z,12.10
2018-09-02T08:03:32.504Z,12.93
2018-09-02T08:06:01.519Z,13.67
2018-09-02T08:08:30.640Z,11.40
2018-09-02T08:10:59.532Z,12.50
2018-09-02T08:13:28.603Z,12.67
2018-09-02T08:15:57.698Z,12.40
2018-09-02T08:18:26.706Z,12.40
2018-09-02T08:20:56.205Z,12.57
2018-09-02T08:23:25.489Z,11.90
2018-09-02T08:25:55.963Z,11.33
2018-09-02T08:28:25.359Z,12.07
2018-09-02T08:30:54.779Z,12.80
2018-09-02T08:33:23.905Z,11.90
2018-09-02T08:35:53.520Z,13.33
2018-09-02T08:38:22.839Z,12.63
2018-09-02T08:40:53.132Z,12.73
2018-09-02T08:43:22.662Z,14.27
2018-09-02T08:45:51.952Z,13.03
2018-09-02T08:48:25.471Z,14.97
2018-09-02T08:50:54.342Z,14.60
2018-09-02T08:53:23.109Z,15.50
2018-09-02T08:55:52.381Z,15.13
2018-09-02T08:58:21.215Z,14.60
2018-09-02T09:00:50.108Z,14.83
2018-09-02T09:03:18.977Z,14.10
2018-09-02T09:05:47.932Z,15.73
2018-09-02T09:08:17.072Z,17.07
2018-09-02T09:10:46.310Z,15.03
2018-09-02T09:13:16.207Z,18.30
2018-09-02T09:15:45.353Z,17.50
2018-09-02T09:18:14.648Z,17.10
2018-09-02T09:20:43.484Z,18.87
2018-09-02T09:23:13.349Z,19.20
2018-09-02T09:25:42.780Z,18.23
2018-09-02T09:28:12.687Z,18.97
2018-09-02T09:30:41.755Z,17.70
2018-09-02T09:33:10.827Z,16.67
2018-09-02T09:35:41.900Z,17.83
2018-09-02T09:38:12.274Z,17.07
2018-09-02T09:40:41.231Z,15.47
2018-09-02T09:43:17.084Z,15.47
2018-09-02T09:45:46.123Z,15.70
2018-09-02T09:48:14.870Z,15.93
2018-09-02T09:50:46.733Z,15.33
2018-09-02T09:53:15.660Z,14.47
2018-09-02T09:55:44.635Z,15.00
2018-09-02T09:58:13.333Z,13.77
2018-09-02T10:00:47.215Z,13.40
2018-09-02T10:03:16.395Z,12.17
2018-09-02T10:05:45.121Z,12.93
2018-09-02T10:08:13.912Z,11.77
2018-09-02T10:10:43.278Z,10.83
2018-09-02T10:13:12.712Z,10.00
2018-09-02T10:15:41.495Z,10.43
2018-09-02T10:18:10.501Z,9.63
2018-09-02T10:20:39.115Z,9.90
2018-09-02T10:23:08.042Z,9.60
2018-09-02T10:25:36.963Z,8.93
2018-09-02T10:28:06.298Z,7.63
2018-09-02T10:30:34.944Z,8.30
2018-09-02T10:33:03.818Z,7.57
2018-09-02T10:35:32.655Z,7.03
2018-09-02T10:38:01.531Z,7.90
2018-09-02T10:40:31.344Z,7.30
2018-09-02T10:43:00.882Z,7.33
2018-09-02T10:45:31.908Z,7.30
2018-09-02T10:48:02.405Z,7.50
2018-09-02T10:50:33.622Z,6.67
2018-09-02T10:53:02.935Z,7.07
2018-09-02T10:55:32.061Z,6.73
2018-09-02T10:58:00.724Z,8.10
2018-09-02T11:00:29.651Z,7.03
2018-09-02T11:02:58.763Z,7.40
2018-09-02T11:05:27.853Z,7.37
2018-09-02T11:07:56.580Z,7.40
2018-09-02T11:10:25.343Z,7.07
2018-09-02T11:12:54.291Z,7.47
2018-09-02T11:15:23.633Z,7.27
2018-09-02T11:17:52.578Z,7.20
2018-09-02T11:20:21.364Z,6.90
2018-09-02T11:22:52.218Z,7.50
2018-09-02T11:25:22.685Z,6.50
2018-09-02T11:27:52.555Z,7.20
2018-09-02T11:30:21.456Z,6.80
2018-09-02T11:32:50.326Z,6.73
2018-09-02T11:35:19.387Z,6.40
2018-09-02T11:37:48.461Z,6.23
2018-09-02T11:40:17.249Z,6.37
2018-09-02T11:42:46.484Z,6.50
2018-09-02T11:45:15.415Z,6.93
2018-09-02T11:47:44.484Z,4.77
2018-09-02T11:50:14.877Z,4.90
2018-09-02T11:52:45.167Z,4.80
2018-09-02T11:55:15.940Z,4.90
2018-09-02T11:57:45.457Z,3.97
2018-09-02T12:00:14.899Z,4.40
2018-09-02T12:02:43.794Z,4.60
2018-09-02T12:05:12.664Z,3.93
2018-09-02T12:07:41.528Z,4.00
2018-09-02T12:10:10.449Z,3.70
2018-09-02T12:12:39.724Z,4.13
2018-09-02T12:15:08.749Z,4.27
2018-09-02T12:17:37.647Z,4.17
2018-09-02T12:20:06.553Z,4.73
2018-09-02T12:22:35.508Z,4.20
2018-09-02T12:25:04.413Z,4.57
2018-09-02T12:27:33.204Z,4.37
2018-09-02T12:30:01.990Z,5.27
2018-09-02T12:32:31.902Z,4.10
2018-09-02T12:35:07.351Z,5.80
2018-09-02T12:37:36.472Z,4.63
2018-09-02T12:40:05.376Z,4.30
2018-09-02T12:42:34.641Z,5.30
2018-09-02T12:45:03.535Z,5.10
2018-09-02T12:47:33.419Z,4.57
2018-09-02T12:50:02.434Z,6.00
2018-09-02T12:52:31.713Z,5.97
2018-09-02T12:55:00.660Z,5.40
2018-09-02T12:57:29.650Z,5.43
2018-09-02T12:59:58.800Z,5.63
2018-09-02T13:02:27.811Z,6.30
2018-09-02T13:04:56.800Z,5.60
2018-09-02T13:07:25.740Z,5.77
2018-09-02T13:09:54.952Z,6.47
2018-09-02T13:12:23.865Z,5.73
2018-09-02T13:14:53.106Z,5.63
2018-09-02T13:17:22.099Z,5.57
2018-09-02T13:19:51.036Z,5.80
2018-09-02T13:22:22.971Z,5.10
2018-09-02T13:24:51.791Z,5.80
2018-09-02T13:27:20.633Z,5.17
2018-09-02T13:29:49.620Z,5.73
2018-09-02T13:32:18.677Z,6.10
2018-09-02T13:34:47.963Z,5.80
2018-09-02T13:37:17.051Z,5.97
2018-09-02T13:39:46.096Z,5.50
2018-09-02T13:42:15.989Z,5.10
2018-09-02T13:44:44.879Z,6.30
2018-09-02T13:47:13.702Z,5.90
2018-09-02T13:49:42.881Z,6.63
2018-09-02T13:52:11.644Z,5.50
2018-09-02T13:54:40.486Z,5.63
2018-09-02T13:57:09.239Z,6.47
2018-09-02T13:59:38.138Z,5.67
2018-09-02T14:02:07.019Z,5.50
2018-09-02T14:04:35.754Z,6.10
2018-09-02T14:07:04.934Z,5.50
2018-09-02T14:09:33.764Z,6.00
2018-09-02T14:12:02.580Z,6.47
2018-09-02T14:14:31.463Z,5.47
2018-09-02T14:17:00.277Z,6.10
2018-09-02T14:19:29.151Z,7.87
2018-09-02T14:21:57.914Z,5.60
2018-09-02T14:24:27.072Z,5.43
2018-09-02T14:26:56.173Z,6.50
2018-09-02T14:29:24.921Z,6.10
2018-09-02T14:31:53.628Z,6.87
2018-09-02T14:34:22.724Z,6.07
2018-09-02T14:36:51.691Z,6.17
2018-09-02T14:39:21.323Z,6.80
2018-09-02T14:41:50.238Z,6.67
2018-09-02T14:44:19.058Z,6.60
2018-09-02T14:46:48.073Z,6.10
2018-09-02T14:49:17.168Z,6.27
2018-09-02T14:51:46.862Z,7.10
2018-09-02T14:54:15.627Z,6.40
2018-09-02T14:56:44.514Z,6.67
2018-09-02T14:59:13.335Z,6.43
2018-09-02T15:01:42.129Z,7.03
2018-09-02T15:04:13.297Z,7.77
2018-09-02T15:06:42.103Z,7.37
2018-09-02T15:09:11.570Z,7.37
2018-09-02T15:11:40.492Z,6.50
2018-09-02T15:14:09.364Z,8.10
2018-09-02T15:16:38.268Z,6.30
2018-09-02T15:19:07.541Z,7.23
2018-09-02T15:21:37.047Z,7.47
2018-09-02T15:24:05.863Z,7.87
2018-09-02T15:26:34.758Z,6.87
2018-09-02T15:29:03.651Z,6.70
2018-09-02T15:31:33.010Z,7.27
2018-09-02T15:34:02.111Z,7.43
2018-09-02T15:36:31.377Z,7.80
2018-09-02T15:39:00.512Z,7.30
2018-09-02T15:41:29.771Z,7.50
2018-09-02T15:43:58.731Z,7.53
2018-09-02T15:46:28.198Z,6.90
2018-09-02T15:48:57.024Z,7.87
2018-09-02T15:51:25.761Z,6.80
2018-09-02T15:53:54.661Z,7.47
2018-09-02T15:56:24.385Z,7.60
2018-09-02T15:58:53.094Z,7.10
2018-09-02T16:01:21.946Z,6.77
2018-09-02T16:03:51.019Z,6.67
2018-09-02T16:06:20.174Z,7.90
2018-09-02T16:08:49.031Z,7.30
2018-09-02T16:11:18.124Z,7.13
2018-09-02T16:13:46.896Z,10.00
2018-09-02T16:16:16.326Z,8.00
2018-09-02T16:18:46.236Z,6.77
2018-09-02T16:21:15.280Z,8.03
2018-09-02T16:23:43.959Z,6.20
2018-09-02T16:26:16.042Z,7.97
2018-09-02T16:28:44.742Z,7.40
2018-09-02T16:31:13.493Z,7.17
2018-09-02T16:33:42.737Z,7.60
2018-09-02T16:36:11.537Z,6.83
2018-09-02T16:38:40.825Z,6.87
2018-09-02T16:41:14.576Z,6.93
2018-09-02T16:43:43.612Z,7.33
2018-09-02T16:46:12.279Z,7.33
2018-09-02T16:48:41.098Z,7.30
2018-09-02T16:51:10.209Z,7.20
2018-09-02T16:53:39.015Z,7.10
2018-09-02T16:56:08.027Z,7.90
2018-09-02T16:58:37.942Z,7.80
2018-09-02T17:01:07.035Z,8.30
2018-09-02T17:03:39.687Z,8.93
2018-09-02T17:06:08.419Z,7.37
2018-09-02T17:08:37.763Z,7.23
2018-09-02T17:11:07.518Z,7.07
2018-09-02T17:13:37.172Z,7.37
2018-09-02T17:16:06.961Z,7.70
2018-09-02T17:18:37.962Z,7.50
2018-09-02T17:21:06.695Z,7.80
2018-09-02T17:23:35.629Z,7.07
2018-09-02T17:26:04.540Z,9.00
2018-09-02T17:28:33.360Z,7.00
2018-09-02T17:31:02.860Z,7.87
2018-09-02T17:33:33.149Z,8.20
2018-09-02T17:36:02.923Z,7.23
2018-09-02T17:38:31.834Z,8.27
2018-09-02T17:41:00.906Z,9.97
2018-09-02T17:43:31.744Z,7.90
2018-09-02T17:46:01.534Z,7.80
2018-09-02T17:48:30.878Z,8.50
2018-09-02T17:51:00.752Z,8.40
2018-09-02T17:53:30.488Z,9.00
2018-09-02T17:56:01.526Z,8.97
2018-09-02T17:58:30.914Z,9.13
2018-09-02T18:01:00.999Z,9.70
2018-09-02T18:03:30.546Z,8.50
2018-09-02T18:05:59.547Z,8.20
2018-09-02T18:08:28.341Z,8.20
2018-09-02T18:10:57.256Z,9.20
2018-09-02T18:13:27.369Z,8.30
2018-09-02T18:16:00.571Z,9.00
2018-09-02T18:18:30.016Z,9.17
2018-09-02T18:20:59.017Z,9.43
2018-09-02T18:23:28.262Z,7.73
2018-09-02T18:25:57.639Z,8.57
2018-09-02T18:28:29.406Z,8.37
2018-09-02T18:30:59.121Z,8.37
2018-09-02T18:33:28.832Z,9.20
2018-09-02T18:35:58.336Z,8.47
2018-09-02T18:38:27.500Z,8.10
2018-09-02T18:40:56.143Z,8.77
2018-09-02T18:43:25.067Z,8.77
2018-09-02T18:45:54.396Z,7.67
2018-09-02T18:48:23.610Z,8.37
2018-09-02T18:50:52.701Z,8.87
2018-09-02T18:53:21.998Z,8.43
2018-09-02T18:55:51.071Z,7.77
2018-09-02T18:58:20.364Z,9.00
2018-09-02T19:00:49.497Z,9.40
2018-09-02T19:03:18.408Z,8.50
2018-09-02T19:05:47.892Z,9.10
2018-09-02T19:08:16.785Z,7.60
2018-09-02T19:10:45.944Z,9.03
2018-09-02T19:13:15.792Z,8.27
2018-09-02T19:15:45.067Z,8.47
2018-09-02T19:18:14.999Z,8.60
2018-09-02T19:20:44.296Z,8.67
2018-09-02T19:23:13.077Z,8.93
2018-09-02T19:25:42.256Z,7.83
2018-09-02T19:28:12.698Z,8.17
2018-09-02T19:30:43.745Z,8.20
2018-09-02T19:33:16.665Z,9.40
2018-09-02T19:35:46.517Z,8.50
2018-09-02T19:38:16.883Z,9.60
2018-09-02T19:40:45.673Z,9.20
2018-09-02T19:43:14.552Z,10.00
2018-09-02T19:45:45.144Z,9.57
2018-09-02T19:48:15.276Z,9.37
2018-09-02T19:50:45.325Z,8.80
2018-09-02T19:53:15.966Z,9.57
2018-09-02T19:55:47.848Z,8.90
2018-09-02T19:58:18.966Z,8.90
2018-09-02T20:00:48.836Z,8.93
2018-09-02T20:03:19.763Z,8.90
2018-09-02T20:05:49.335Z,9.10
2018-09-02T20:08:20.244Z,9.10
2018-09-02T20:10:49.564Z,9.47
2018-09-02T20:13:18.648Z,9.33
2018-09-02T20:15:47.867Z,9.17
2018-09-02T20:18:17.452Z,9.53
2018-09-02T20:20:46.939Z,7.50
2018-09-02T20:23:16.474Z,8.30
2018-09-02T20:25:45.362Z,8.73
2018-09-02T20:28:14.704Z,9.30
2018-09-02T20:30:43.627Z,9.23
2018-09-02T20:33:13.555Z,9.17
2018-09-02T20:35:42.450Z,9.03
2018-09-02T20:38:11.154Z,9.17
2018-09-02T20:40:40.143Z,9.43
2018-09-02T20:43:09.019Z,8.30
2018-09-02T20:45:42.392Z,9.70
2018-09-02T20:48:11.724Z,10.03
2018-09-02T20:50:40.820Z,10.00
2018-09-02T20:53:11.214Z,9.40
2018-09-02T20:55:40.235Z,10.33
2018-09-02T20:58:09.955Z,10.30
2018-09-02T21:00:39.562Z,9.90
2018-09-02T21:03:09.165Z,10.17
2018-09-02T21:05:38.003Z,9.50
2018-09-02T21:08:07.308Z,8.77
2018-09-02T21:10:36.226Z,9.50
2018-09-02T21:13:05.725Z,10.13
2018-09-02T21:15:34.854Z,9.10
2018-09-02T21:18:05.523Z,9.63
2018-09-02T21:20:34.663Z,9.73
2018-09-02T21:23:03.772Z,10.00
2018-09-02T21:25:32.860Z,8.67
2018-09-02T21:28:01.937Z,9.40
2018-09-02T21:30:31.064Z,9.50
2018-09-02T21:33:00.507Z,10.10
2018-09-02T21:35:29.652Z,9.10
2018-09-02T21:37:58.750Z,9.80
2018-09-02T21:40:29.288Z,9.93
2018-09-02T21:42:58.236Z,9.40
2018-09-02T21:45:28.539Z,10.20
2018-09-02T21:47:58.201Z,9.67
2018-09-02T21:50:28.338Z,10.17
2018-09-02T21:52:57.430Z,9.60
2018-09-02T21:55:26.344Z,9.40
2018-09-02T21:57:55.418Z,9.87
2018-09-02T22:00:24.509Z,9.43
2018-09-02T22:02:53.286Z,9.43
2018-09-02T22:05:22.378Z,9.40
2018-09-02T22:07:51.154Z,9.53
2018-09-02T22:10:20.164Z,9.90
2018-09-02T22:12:48.922Z,10.30
2018-09-02T22:15:17.695Z,9.87
2018-09-02T22:17:46.846Z,9.07
2018-09-02T22:20:15.944Z,9.70
2018-09-02T22:22:45.772Z,10.30
2018-09-02T22:25:14.544Z,9.40
2018-09-02T22:27:43.410Z,9.30
2018-09-02T22:30:12.301Z,11.53
2018-09-02T22:32:41.204Z,10.07
2018-09-02T22:35:10.134Z,9.50
2018-09-02T22:37:38.872Z,10.10
2018-09-02T22:40:07.870Z,9.50
2018-09-02T22:42:36.537Z,9.37
2018-09-02T22:45:05.631Z,9.37
2018-09-02T22:47:34.447Z,9.37
2018-09-02T22:50:03.169Z,10.03
2018-09-02T22:52:32.180Z,9.60
2018-09-02T22:55:01.011Z,10.03
2018-09-02T22:57:29.806Z,9.97
2018-09-02T22:59:58.579Z,9.30
2018-09-02T23:02:27.420Z,9.20
2018-09-02T23:04:56.283Z,9.40
2018-09-02T23:07:31.736Z,9.30
2018-09-02T23:10:01.132Z,9.13
2018-09-02T23:12:29.983Z,9.67
2018-09-02T23:14:58.886Z,9.70
2018-09-02T23:17:27.799Z,9.33
2018-09-02T23:19:56.723Z,8.70
2018-09-02T23:22:25.520Z,9.73
2018-09-02T23:24:54.663Z,9.57
2018-09-02T23:27:23.527Z,9.87
2018-09-02T23:29:53.894Z,9.87
2018-09-02T23:32:22.722Z,9.87
2018-09-02T23:34:51.719Z,9.60
2018-09-02T23:37:20.475Z,10.57
2018-09-02T23:39:50.224Z,10.07
2018-09-02T23:42:19.244Z,9.67
2018-09-02T23:44:47.931Z,9.50
2018-09-02T23:47:16.741Z,9.17
2018-09-02T23:49:45.620Z,9.47
2018-09-02T23:52:14.548Z,9.80
2018-09-02T23:54:43.274Z,9.93
2018-09-02T23:57:12.257Z,9.60
2018-09-02T23:59:41.151Z,9.90
